Time;durP1;ratioP1;P1;durP2;ratioP2;P2;SDS_P1;SDS_P2;PMS_P1;PMS_P2;Temp;Humidity;BMP_temperature;BMP_pressure;BME280_temperature;BME280_humidity;BME280_pressure;Samples;Min_cycle;Max_cycle;Signal;HPM_P1;HPM_P2
2022/11/04 00:01:59;;;;;;;2.30;0.68;;;8.90;99.90;;;;;;5073507;28;20063;-71
2022/11/04 00:04:26;;;;;;;2.75;0.93;;;8.90;99.90;;;;;;5073703;28;20059;-72
2022/11/04 00:06:53;;;;;;;1.55;0.70;;;8.90;99.90;;;;;;5073724;28;20512;-72
2022/11/04 00:09:29;;;;;;;3.53;0.73;;;8.90;99.90;;;;;;5069938;28;20471;-71
2022/11/04 00:14:50;;;;;;;3.35;1.02;;;8.60;99.90;;;;;;5071227;28;20411;-72
2022/11/04 00:17:20;;;;;;;4.07;0.90;;;8.70;99.90;;;;;;5074986;28;20028;-72
2022/11/04 00:30:56;;;;;;;0.55;0.47;;;8.60;99.90;;;;;;5093981;28;20031;-72
2022/11/04 00:33:26;;;;;;;2.00;0.60;;;8.60;99.90;;;;;;5094876;28;20040;-71
2022/11/04 00:35:54;;;;;;;3.33;0.60;;;8.60;99.90;;;;;;5086347;28;20060;-72
2022/11/04 00:38:20;;;;;;;1.27;0.50;;;8.60;99.90;;;;;;5074719;28;20053;-72
2022/11/04 00:40:46;;;;;;;1.02;0.50;;;8.60;99.90;;;;;;5081231;28;20055;-71
2022/11/04 00:43:12;;;;;;;2.08;0.60;;;8.70;99.90;;;;;;5069643;28;20036;-71
2022/11/04 00:45:40;;;;;;;9.02;0.95;;;8.60;99.90;;;;;;5063105;28;20438;-71
2022/11/04 00:48:06;;;;;;;2.97;0.55;;;8.40;99.90;;;;;;5074753;28;20039;-71
2022/11/04 00:50:31;;;;;;;4.60;0.70;;;8.20;99.90;;;;;;5073701;28;20040;-71
2022/11/04 00:53:02;;;;;;;1.40;0.52;;;8.30;99.90;;;;;;5076420;28;20071;-71
2022/11/04 00:55:31;;;;;;;2.10;0.68;;;8.20;99.90;;;;;;5094492;28;20119;-71
2022/11/04 00:58:00;;;;;;;4.65;0.80;;;8.10;99.90;;;;;;5088626;28;20036;-71
2022/11/04 01:00:26;;;;;;;1.52;0.60;;;8.00;99.90;;;;;;5079716;28;20044;-71
2022/11/04 01:02:52;;;;;;;1.50;0.75;;;7.90;99.90;;;;;;5095239;28;20040;-71
2022/11/04 01:05:18;;;;;;;2.38;0.70;;;7.90;99.90;;;;;;5092347;28;20036;-71
2022/11/04 01:07:47;;;;;;;4.07;0.60;;;8.00;99.90;;;;;;5077639;28;20063;-71
2022/11/04 01:10:12;;;;;;;2.85;0.70;;;8.00;99.90;;;;;;5085692;28;20070;-71
2022/11/04 01:12:38;;;;;;;1.50;0.52;;;8.10;99.90;;;;;;5086022;28;20033;-71
2022/11/04 01:15:04;;;;;;;1.10;0.30;;;8.10;99.90;;;;;;5079000;28;20056;-71
2022/11/04 01:17:30;;;;;;;1.98;0.70;;;8.10;99.90;;;;;;5076307;28;20036;-71
2022/11/04 01:19:56;;;;;;;1.13;0.57;;;8.20;99.90;;;;;;5092096;28;20046;-71
2022/11/04 01:22:21;;;;;;;2.47;0.70;;;8.30;99.90;;;;;;5094520;28;20118;-71
2022/11/04 01:24:47;;;;;;;1.70;0.63;;;8.30;99.90;;;;;;5094709;28;20048;-71
2022/11/04 01:27:13;;;;;;;3.33;0.70;;;8.30;99.90;;;;;;5092706;28;20028;-71
2022/11/04 01:29:38;;;;;;;2.17;0.60;;;8.30;99.90;;;;;;5079970;28;20063;-71
2022/11/04 01:32:04;;;;;;;5.50;1.00;;;8.40;99.90;;;;;;5083501;28;20028;-71
2022/11/04 01:34:30;;;;;;;2.80;0.35;;;8.30;99.90;;;;;;5075186;28;20416;-71
2022/11/04 01:36:56;;;;;;;0.95;0.40;;;8.10;99.90;;;;;;5077938;28;20461;-71
2022/11/04 01:39:22;;;;;;;2.17;0.50;;;7.90;99.90;;;;;;5074929;28;20049;-71
2022/11/04 01:41:48;;;;;;;1.80;0.50;;;;;;;;;;5095839;28;20115;-71
2022/11/04 01:44:32;;;;;;;3.42;1.05;;;;;;;;;;5095847;28;20081;-71
2022/11/04 01:46:58;;;;;;;2.88;0.30;;;;;;;;;;5075970;28;20051;-71
2022/11/04 01:49:34;;;;;;;1.92;0.45;;;8.20;99.90;;;;;;5075410;28;20377;-71
2022/11/04 01:52:09;;;;;;;1.92;0.90;;;8.40;99.90;;;;;;5075269;28;20037;-71
2022/11/04 01:54:36;;;;;;;1.40;0.60;;;8.50;99.90;;;;;;5075380;28;20036;-71
2022/11/04 01:57:04;;;;;;;4.47;0.57;;;8.50;99.90;;;;;;5058931;28;20033;-71
2022/11/04 01:59:35;;;;;;;1.80;0.43;;;8.50;99.90;;;;;;5093658;28;20070;-71
2022/11/04 02:02:02;;;;;;;4.28;0.93;;;8.50;99.90;;;;;;5095361;28;20040;-71
2022/11/04 02:04:29;;;;;;;1.40;0.57;;;8.40;99.90;;;;;;5095511;28;20070;-71
2022/11/04 02:07:07;;;;;;;6.57;0.50;;;8.40;99.90;;;;;;5075656;28;20040;-71
2022/11/04 02:09:37;;;;;;;1.88;0.50;;;8.20;99.90;;;;;;5075495;28;20032;-71
2022/11/04 02:14:48;;;;;;;1.67;0.52;;;;;;;;;;5080054;28;20075;-71
2022/11/04 02:17:17;;;;;;;1.75;0.52;;;7.70;99.90;;;;;;5094906;28;20126;-71
2022/11/04 02:19:42;;;;;;;4.10;1.00;;;7.70;99.90;;;;;;5093773;28;20044;-71
2022/11/04 02:22:46;;;;;;;4.10;0.82;;;7.80;99.90;;;;;;5095404;28;20119;-71
2022/11/04 02:25:30;;;;;;;1.10;0.45;;;7.80;99.90;;;;;;5089431;28;20040;-71
2022/11/04 02:28:23;;;;;;;2.95;0.60;;;7.90;99.90;;;;;;5075939;28;20376;-71
2022/11/04 02:30:51;;;;;;;2.95;0.82;;;8.00;99.90;;;;;;5058119;28;20043;-71
2022/11/04 02:33:40;;;;;;;3.83;0.95;;;8.20;99.90;;;;;;5074875;28;20036;-71
2022/11/04 02:36:34;;;;;;;2.47;0.50;;;8.20;99.90;;;;;;5075489;28;20029;-71
2022/11/04 02:39:19;;;;;;;4.25;0.52;;;8.20;99.90;;;;;;5071869;28;20515;-71
2022/11/04 02:41:58;;;;;;;1.25;0.50;;;8.20;99.90;;;;;;5074674;28;20044;-71
2022/11/04 02:44:37;;;;;;;2.30;0.40;;;8.30;99.90;;;;;;5073123;28;20407;-71
2022/11/04 02:47:12;;;;;;;0.90;0.40;;;8.40;99.90;;;;;;5092783;28;20043;-71
2022/11/04 02:49:54;;;;;;;4.75;0.65;;;8.40;99.90;;;;;;5093521;28;20570;-71
2022/11/04 02:52:38;;;;;;;2.55;0.50;;;8.40;99.90;;;;;;5093555;28;20032;-71
2022/11/04 02:55:29;;;;;;;4.60;0.60;;;8.30;99.90;;;;;;5086245;28;20043;-71
2022/11/04 02:57:58;;;;;;;1.38;0.45;;;8.40;99.90;;;;;;5074241;28;20564;-71
2022/11/04 03:00:24;;;;;;;1.17;0.52;;;8.30;99.90;;;;;;5074151;28;20052;-71
2022/11/04 03:03:19;;;;;;;1.88;0.50;;;8.20;99.90;;;;;;5072991;28;20135;-71
2022/11/04 03:05:48;;;;;;;1.67;0.45;;;8.10;99.90;;;;;;5082969;28;20100;-71
2022/11/04 03:08:37;;;;;;;4.80;0.85;;;8.00;99.90;;;;;;5086489;28;20943;-71
2022/11/04 03:11:12;;;;;;;2.42;0.70;;;8.00;99.90;;;;;;5068156;28;20067;-71
2022/11/04 03:13:53;;;;;;;1.42;0.43;;;8.00;99.90;;;;;;5076773;28;20522;-71
2022/11/04 03:16:28;;;;;;;3.80;0.65;;;8.20;99.90;;;;;;5079157;28;20039;-71
2022/11/04 03:19:21;;;;;;;3.38;1.00;;;8.20;99.90;;;;;;5074978;28;20048;-71
2022/11/04 03:22:05;;;;;;;2.85;0.77;;;8.20;99.90;;;;;;5050732;28;20123;-71
2022/11/04 03:24:31;;;;;;;2.25;0.60;;;8.40;99.90;;;;;;5066412;28;20069;-71
2022/11/04 03:27:37;;;;;;;1.75;0.50;;;8.40;99.90;;;;;;5093123;28;20036;-71
2022/11/04 03:30:06;;;;;;;1.85;0.52;;;8.40;99.90;;;;;;5061223;28;20048;-71
2022/11/04 03:33:00;;;;;;;1.05;0.43;;;8.50;99.90;;;;;;5072583;28;20036;-71
2022/11/04 03:35:27;;;;;;;1.95;0.45;;;8.40;99.90;;;;;;5073762;28;20369;-71
2022/11/04 03:37:53;;;;;;;4.32;0.77;;;8.40;99.90;;;;;;5074698;28;20044;-71
2022/11/04 03:40:20;;;;;;;0.65;0.50;;;8.40;99.90;;;;;;5073928;28;20403;-71
2022/11/04 03:43:13;;;;;;;3.72;0.70;;;8.40;99.90;;;;;;5073766;28;20044;-71
2022/11/04 03:45:41;;;;;;;2.20;0.50;;;8.30;99.90;;;;;;5072380;28;20089;-71
2022/11/04 03:48:07;;;;;;;2.78;0.50;;;8.30;99.90;;;;;;5079346;28;20032;-71
2022/11/04 03:50:40;;;;;;;1.75;0.60;;;8.30;99.90;;;;;;5078379;28;20042;-71
2022/11/04 03:53:07;;;;;;;3.00;0.32;;;8.30;99.90;;;;;;5092707;28;20135;-71
2022/11/04 03:55:44;;;;;;;1.70;0.45;;;8.40;99.90;;;;;;5077422;28;20044;-71
2022/11/04 03:58:12;;;;;;;1.95;0.70;;;8.30;99.90;;;;;;5090235;28;20131;-71
2022/11/04 04:00:47;;;;;;;2.35;0.63;;;8.30;99.90;;;;;;5072207;28;20060;-71
2022/11/04 04:03:20;;;;;;;4.53;0.70;;;8.30;99.90;;;;;;5073671;28;20047;-71
2022/11/04 04:06:14;;;;;;;1.48;0.52;;;8.30;99.90;;;;;;5072361;28;20043;-71
2022/11/04 04:08:52;;;;;;;1.60;0.35;;;8.30;99.90;;;;;;5076042;28;20039;-71
2022/11/04 04:11:39;;;;;;;3.13;0.70;;;8.20;99.90;;;;;;5093372;28;20036;-71
2022/11/04 04:14:38;;;;;;;1.25;0.47;;;8.20;99.90;;;;;;5083346;28;20040;-71
2022/11/04 04:17:20;;;;;;;2.30;0.47;;;8.30;99.90;;;;;;5090597;28;20032;-71
2022/11/04 04:19:57;;;;;;;1.40;0.20;;;8.50;99.90;;;;;;5077267;28;20079;-71
2022/11/04 04:22:32;;;;;;;0.95;0.35;;;8.60;99.90;;;;;;5072092;28;20044;-71
2022/11/04 04:27:48;;;;;;;1.98;0.45;;;8.60;99.90;;;;;;5073338;28;20515;-71
2022/11/04 04:30:15;;;;;;;3.05;0.77;;;8.60;99.90;;;;;;5087479;28;20039;-71
2022/11/04 04:32:48;;;;;;;0.90;0.50;;;8.50;99.90;;;;;;5090242;28;20127;-71
2022/11/04 04:46:28;;;;;;;1.77;0.45;;;8.50;99.90;;;;;;5093277;28;20043;-71
2022/11/04 04:48:54;;;;;;;2.95;0.60;;;8.50;99.90;;;;;;5076966;28;20131;-71
2022/11/04 04:51:20;;;;;;;2.67;0.50;;;8.60;99.90;;;;;;5072979;28;20052;-71
2022/11/04 04:53:46;;;;;;;0.90;0.50;;;8.50;99.90;;;;;;5076666;28;20114;-71
2022/11/04 04:56:12;;;;;;;3.83;0.88;;;8.60;99.90;;;;;;5093197;28;20040;-71
2022/11/04 04:58:37;;;;;;;1.60;0.32;;;8.50;99.90;;;;;;5092916;28;20050;-71
2022/11/04 05:01:04;;;;;;;2.60;0.40;;;8.50;99.90;;;;;;5081788;28;20146;-71
2022/11/04 05:03:29;;;;;;;2.58;0.57;;;8.50;99.90;;;;;;5068250;28;20033;-71
2022/11/04 05:05:58;;;;;;;1.10;0.40;;;8.50;99.90;;;;;;5095111;28;20038;-71
2022/11/04 05:08:24;;;;;;;2.45;0.30;;;8.50;99.90;;;;;;5096792;28;20389;-71
2022/11/04 05:10:50;;;;;;;1.92;0.38;;;8.40;99.90;;;;;;5092377;28;20058;-70
2022/11/04 05:13:28;;;;;;;2.63;0.38;;;8.30;99.90;;;;;;5096102;28;20040;-71
2022/11/04 05:16:08;;;;;;;5.65;0.90;;;8.30;99.90;;;;;;5056173;28;20041;-71
2022/11/04 05:18:34;;;;;;;2.97;0.50;;;8.20;99.90;;;;;;5067989;28;20089;-71
2022/11/04 05:21:18;;;;;;;0.93;0.45;;;8.20;99.90;;;;;;5095235;28;20066;-71
2022/11/04 05:23:44;;;;;;;1.70;0.40;;;8.30;99.90;;;;;;5094406;28;20032;-71
2022/11/04 05:26:10;;;;;;;2.20;0.47;;;8.30;99.90;;;;;;5076361;28;20047;-71
2022/11/04 05:28:35;;;;;;;0.65;0.32;;;8.20;99.90;;;;;;5079170;28;20040;-71
2022/11/04 05:31:03;;;;;;;2.05;1.05;;;8.30;99.90;;;;;;5088679;28;20565;-71
2022/11/04 05:33:29;;;;;;;1.58;0.55;;;8.40;99.90;;;;;;5074312;28;20035;-71
2022/11/04 05:36:03;;;;;;;3.03;0.68;;;8.50;99.90;;;;;;5083230;28;20043;-71
2022/11/04 05:38:29;;;;;;;4.10;0.82;;;8.50;99.90;;;;;;5090579;28;20055;-71
2022/11/04 05:40:57;;;;;;;1.50;0.55;;;8.50;99.90;;;;;;5074692;28;20037;-71
2022/11/04 05:43:22;;;;;;;1.23;0.50;;;8.60;99.90;;;;;;5087986;28;20084;-71
2022/11/04 05:45:48;;;;;;;1.40;0.50;;;8.60;99.90;;;;;;5078814;28;20454;-71
2022/11/04 05:48:14;;;;;;;1.40;0.35;;;8.50;99.90;;;;;;5085074;28;20058;-71
2022/11/04 05:50:40;;;;;;;2.05;0.30;;;8.60;99.90;;;;;;5074313;28;20178;-71
2022/11/04 05:53:06;;;;;;;3.75;0.50;;;8.50;99.90;;;;;;5091443;28;20047;-71
2022/11/04 05:55:32;;;;;;;1.90;0.40;;;8.50;99.90;;;;;;5094642;28;20028;-71
2022/11/04 05:57:58;;;;;;;1.00;0.43;;;8.60;99.90;;;;;;5095837;28;20039;-71
2022/11/04 06:00:25;;;;;;;2.47;0.47;;;8.40;99.90;;;;;;5094471;28;20053;-71
2022/11/04 06:02:51;;;;;;;1.27;0.43;;;8.40;99.90;;;;;;5095656;28;20130;-71
2022/11/04 06:05:16;;;;;;;3.80;0.82;;;8.30;99.90;;;;;;5094495;28;20503;-71
2022/11/04 06:07:42;;;;;;;1.27;0.40;;;8.40;99.90;;;;;;5095876;28;20028;-71
2022/11/04 06:10:08;;;;;;;2.40;0.40;;;8.40;99.90;;;;;;5095883;28;20044;-71
2022/11/04 06:12:34;;;;;;;3.28;0.63;;;8.50;99.90;;;;;;5094374;28;20137;-71
2022/11/04 06:15:00;;;;;;;2.70;0.43;;;8.50;99.90;;;;;;5094230;28;20426;-71
2022/11/04 06:17:25;;;;;;;2.58;0.60;;;8.50;99.90;;;;;;5095722;28;20039;-71
2022/11/04 06:19:51;;;;;;;4.10;0.80;;;8.50;99.90;;;;;;5095367;28;20101;-71
2022/11/04 06:22:18;;;;;;;4.03;0.75;;;8.40;99.90;;;;;;5094118;28;20070;-71
2022/11/04 06:24:44;;;;;;;2.30;0.80;;;8.40;99.90;;;;;;5095301;28;20076;-71
2022/11/04 06:27:10;;;;;;;6.05;0.85;;;8.40;99.90;;;;;;5095237;28;20036;-71
2022/11/04 06:29:40;;;;;;;3.40;0.95;;;8.40;99.90;;;;;;5094159;28;20450;-71
2022/11/04 06:32:07;;;;;;;2.55;0.75;;;8.40;99.90;;;;;;5094866;28;20047;-71
2022/11/04 06:34:33;;;;;;;2.83;0.80;;;8.30;99.90;;;;;;5094870;28;20093;-71
2022/11/04 06:36:58;;;;;;;2.40;0.95;;;8.40;99.90;;;;;;5092886;28;20036;-71
2022/11/04 06:39:24;;;;;;;3.72;0.80;;;8.30;99.90;;;;;;5094633;28;20075;-71
2022/11/04 06:41:50;;;;;;;2.42;0.80;;;8.10;99.90;;;;;;5095074;28;20071;-71
2022/11/04 06:44:15;;;;;;;2.80;0.90;;;8.10;99.90;;;;;;5095208;28;20050;-71
2022/11/04 06:46:42;;;;;;;1.40;0.50;;;8.30;99.90;;;;;;5095105;28;20499;-71
2022/11/04 06:49:19;;;;;;;2.08;0.52;;;8.40;99.90;;;;;;5095000;28;20039;-72
2022/11/04 06:51:46;;;;;;;2.10;0.63;;;8.40;99.90;;;;;;5093605;28;20050;-71
2022/11/04 06:54:12;;;;;;;2.22;0.57;;;8.50;99.90;;;;;;5094814;28;20043;-71
2022/11/04 06:56:38;;;;;;;3.35;0.93;;;8.60;99.90;;;;;;5094855;28;20048;-71
2022/11/04 06:59:05;;;;;;;3.28;0.65;;;8.50;99.90;;;;;;5093411;28;20031;-71
2022/11/04 07:01:34;;;;;;;1.80;0.52;;;8.60;99.90;;;;;;5094790;28;20546;-71
2022/11/04 07:04:01;;;;;;;4.60;0.75;;;8.60;99.90;;;;;;5094624;28;20111;-71
2022/11/04 07:06:30;;;;;;;2.58;0.70;;;8.60;99.90;;;;;;5094547;28;20514;-71
2022/11/04 07:09:00;;;;;;;3.38;0.70;;;8.60;99.90;;;;;;5094414;28;20488;-71
2022/11/04 07:11:28;;;;;;;0.85;0.70;;;8.60;99.90;;;;;;5094511;28;20040;-71
2022/11/04 07:13:54;;;;;;;2.90;0.88;;;8.70;99.90;;;;;;5094572;28;20499;-71
2022/11/04 07:16:19;;;;;;;2.97;0.80;;;8.70;99.90;;;;;;5094598;28;20047;-71
2022/11/04 07:18:46;;;;;;;2.70;1.00;;;8.70;99.90;;;;;;5093203;28;20046;-71
2022/11/04 07:21:12;;;;;;;3.47;1.00;;;8.80;99.90;;;;;;5094563;28;20028;-71
2022/11/04 07:23:38;;;;;;;8.45;3.10;;;8.80;99.90;;;;;;5094401;28;20101;-71
2022/11/04 07:26:06;;;;;;;15.70;7.85;;;8.90;99.90;;;;;;5094037;28;20495;-71
2022/11/04 07:28:32;;;;;;;17.65;9.05;;;8.90;99.90;;;;;;5094363;28;20032;-71
2022/11/04 07:31:00;;;;;;;15.98;7.50;;;8.90;99.90;;;;;;5094533;28;20460;-71
2022/11/04 07:33:26;;;;;;;12.30;7.60;;;9.00;99.90;;;;;;5094383;28;20032;-71
2022/11/04 07:35:53;;;;;;;3.13;1.48;;;9.00;99.90;;;;;;5092796;28;20036;-71
2022/11/04 07:38:20;;;;;;;4.22;1.10;;;9.00;99.90;;;;;;5092786;28;20063;-71
2022/11/04 07:40:46;;;;;;;3.65;1.23;;;9.10;99.90;;;;;;5094122;28;20052;-71
2022/11/04 07:43:11;;;;;;;2.90;0.63;;;9.10;99.90;;;;;;5092892;28;20080;-71
2022/11/04 07:45:38;;;;;;;4.72;0.90;;;9.20;99.90;;;;;;5092875;28;20074;-71
2022/11/04 07:48:04;;;;;;;6.63;2.00;;;9.30;99.90;;;;;;5094089;28;20436;-71
2022/11/04 07:50:30;;;;;;;1.95;0.60;;;9.30;99.90;;;;;;5094081;28;20127;-71
2022/11/04 07:52:56;;;;;;;3.65;1.10;;;9.30;99.90;;;;;;5092661;28;20036;-71
2022/11/04 07:55:21;;;;;;;1.52;0.50;;;9.30;99.90;;;;;;5094181;28;20391;-72
2022/11/04 07:57:47;;;;;;;4.07;0.90;;;9.30;99.90;;;;;;5094014;28;20563;-71
2022/11/04 08:00:15;;;;;;;3.95;1.25;;;9.40;99.90;;;;;;5093718;28;20135;-72
2022/11/04 08:02:45;;;;;;;4.40;1.67;;;9.40;99.90;;;;;;5093837;28;20032;-71
2022/11/04 08:05:12;;;;;;;2.55;1.25;;;9.40;99.90;;;;;;5093844;28;20501;-71
2022/11/04 08:07:38;;;;;;;4.40;1.92;;;9.50;99.90;;;;;;5092607;28;20032;-71
2022/11/04 08:10:05;;;;;;;4.55;2.00;;;9.60;99.90;;;;;;5093969;28;20044;-71
2022/11/04 08:12:31;;;;;;;7.72;2.08;;;9.50;99.90;;;;;;5092916;28;20043;-70
2022/11/04 08:14:58;;;;;;;7.45;2.70;;;9.50;99.90;;;;;;5092835;28;20036;-71
2022/11/04 08:17:24;;;;;;;5.28;2.42;;;9.50;99.90;;;;;;5081587;28;20040;-71
2022/11/04 08:19:49;;;;;;;8.13;2.85;;;9.40;99.90;;;;;;5072702;28;20054;-71
2022/11/04 08:22:15;;;;;;;8.25;2.65;;;9.50;99.90;;;;;;5064761;28;20435;-72
2022/11/04 08:24:41;;;;;;;6.10;2.60;;;9.50;99.90;;;;;;5053546;28;20094;-71
2022/11/04 08:27:07;;;;;;;22.33;7.95;;;9.50;99.90;;;;;;5062941;28;20166;-71
2022/11/04 08:29:33;;;;;;;18.13;7.22;;;9.40;99.90;;;;;;5073639;28;20041;-72
2022/11/04 08:31:59;;;;;;;19.00;7.68;;;9.40;99.90;;;;;;5071716;28;20581;-72
2022/11/04 08:34:25;;;;;;;22.60;8.73;;;9.40;99.90;;;;;;5073159;28;20119;-71
2022/11/04 08:36:56;;;;;;;16.98;8.80;;;9.30;99.90;;;;;;5072746;28;20044;-72
2022/11/04 08:39:22;;;;;;;11.02;6.13;;;9.40;99.90;;;;;;5083259;28;20087;-72
2022/11/04 08:41:49;;;;;;;10.18;4.20;;;9.30;99.90;;;;;;5077018;28;20428;-69
2022/11/04 08:44:15;;;;;;;7.53;3.97;;;9.30;99.90;;;;;;5078043;28;20044;-69
2022/11/04 08:46:43;;;;;;;8.70;4.63;;;9.30;99.90;;;;;;5077704;28;20033;-69
2022/11/04 08:49:10;;;;;;;5.50;2.65;;;9.30;99.90;;;;;;5077908;28;20044;-71
2022/11/04 08:51:38;;;;;;;3.83;2.08;;;9.40;99.90;;;;;;5076244;28;20036;-69
2022/11/04 08:54:04;;;;;;;3.72;2.08;;;9.20;99.90;;;;;;5095155;28;20502;-70
2022/11/04 08:56:34;;;;;;;2.65;1.38;;;9.30;99.90;;;;;;5086945;28;20040;-71
2022/11/04 08:59:03;;;;;;;2.85;1.40;;;9.30;99.90;;;;;;5092849;28;20048;-70
2022/11/04 09:01:32;;;;;;;2.92;1.63;;;9.20;99.90;;;;;;5096750;28;20450;-73
2022/11/04 09:03:57;;;;;;;1.50;0.68;;;9.20;99.90;;;;;;5094518;28;20114;-72
2022/11/04 09:06:28;;;;;;;2.13;0.90;;;9.20;99.90;;;;;;5082284;28;20123;-71
2022/11/04 09:08:56;;;;;;;4.22;1.02;;;9.20;99.90;;;;;;5059489;28;20472;-72
2022/11/04 09:11:22;;;;;;;3.17;1.48;;;9.30;99.90;;;;;;5054116;28;20036;-72
2022/11/04 09:13:48;;;;;;;2.75;2.15;;;9.10;99.90;;;;;;5053001;28;20492;-71
2022/11/04 09:16:14;;;;;;;3.95;1.30;;;9.10;99.90;;;;;;5069502;28;20115;-70
2022/11/04 09:18:40;;;;;;;3.15;1.00;;;9.10;99.90;;;;;;5083597;28;20376;-71
2022/11/04 09:21:08;;;;;;;3.67;1.23;;;9.00;99.90;;;;;;5075419;28;20044;-71
2022/11/04 09:23:34;;;;;;;1.92;1.13;;;8.90;99.90;;;;;;5073424;28;20041;-72
2022/11/04 09:26:07;;;;;;;1.65;1.20;;;8.90;99.90;;;;;;5075091;28;20041;-72
2022/11/04 09:28:33;;;;;;;1.45;0.55;;;8.80;99.90;;;;;;5075840;28;20044;-72
2022/11/04 09:30:59;;;;;;;2.78;1.00;;;8.70;99.90;;;;;;5076000;28;20037;-71
2022/11/04 09:33:25;;;;;;;2.08;0.52;;;8.40;99.90;;;;;;5075139;28;20438;-72
2022/11/04 09:35:58;;;;;;;0.90;0.50;;;8.30;99.90;;;;;;5085859;28;20040;-71
2022/11/04 09:38:24;;;;;;;2.97;1.00;;;8.10;99.90;;;;;;5077670;28;20140;-70
2022/11/04 09:40:51;;;;;;;1.45;1.10;;;8.10;99.90;;;;;;5095835;28;20053;-72
2022/11/04 09:43:31;;;;;;;1.33;1.23;;;8.20;99.90;;;;;;5073998;28;20076;-73
2022/11/04 09:45:58;;;;;;;1.05;0.77;;;8.10;99.90;;;;;;5073729;28;20040;-71
2022/11/04 09:48:35;;;;;;;3.65;2.55;;;8.20;99.90;;;;;;5088507;28;20488;-72
2022/11/04 09:51:05;;;;;;;3.28;1.27;;;8.20;99.90;;;;;;5092340;28;20028;-72
2022/11/04 09:53:43;;;;;;;1.02;0.47;;;8.30;99.90;;;;;;5092693;28;20062;-70
2022/11/04 09:56:22;;;;;;;1.13;0.40;;;8.40;99.90;;;;;;5093725;28;20429;-70
2022/11/04 09:58:50;;;;;;;1.70;0.30;;;8.50;99.90;;;;;;5086010;28;20067;-71
2022/11/04 10:01:35;;;;;;;1.00;0.40;;;8.60;99.90;;;;;;5073655;28;20043;-71
2022/11/04 10:04:42;;;;;;;0.50;0.30;;;9.30;99.90;;;;;;5073289;28;20131;-73
2022/11/04 10:07:17;;;;;;;0.80;0.80;;;9.80;99.90;;;;;;5075162;28;20407;-72
2022/11/04 10:09:58;;;;;;;1.60;1.50;;;9.70;99.90;;;;;;5073008;28;20170;-72
2022/11/04 10:12:51;;;;;;;0.70;0.40;;;9.60;99.90;;;;;;5072953;28;20264;-72
2022/11/04 10:15:35;;;;;;;1.42;0.32;;;9.40;99.90;;;;;;5073137;28;20181;-72
2022/11/04 10:18:13;;;;;;;1.58;0.70;;;9.20;99.90;;;;;;5062362;28;20044;-72
2022/11/04 10:20:54;;;;;;;0.45;0.30;;;9.40;99.90;;;;;;5092982;28;20047;-71
2022/11/04 10:23:33;;;;;;;1.10;0.60;;;9.50;99.90;;;;;;5092783;28;20039;-71
2022/11/04 10:26:19;;;;;;;0.90;0.32;;;10.00;99.90;;;;;;5071945;28;20114;-71
2022/11/04 10:28:55;;;;;;;3.55;2.10;;;10.10;99.90;;;;;;5071495;28;20040;-72
2022/11/04 10:31:21;;;;;;;5.72;2.50;;;9.90;99.90;;;;;;5076514;28;20131;-71
2022/11/04 10:34:24;;;;;;;1.88;0.90;;;9.90;99.90;;;;;;5091703;28;20035;-72
2022/11/04 10:36:51;;;;;;;2.13;0.63;;;9.80;99.90;;;;;;5086147;28;20044;-71
2022/11/04 10:39:26;;;;;;;3.08;0.93;;;10.00;99.90;;;;;;5071850;28;20043;-71
2022/11/04 10:41:52;;;;;;;3.58;0.90;;;10.00;99.90;;;;;;5083705;28;20134;-72
2022/11/04 10:44:27;;;;;;;1.58;0.73;;;10.30;99.90;;;;;;5067324;28;20555;-72
2022/11/04 10:47:14;;;;;;;2.85;1.40;;;10.40;99.90;;;;;;5080236;28;20450;-72
2022/11/04 10:49:48;;;;;;;3.40;1.23;;;10.60;99.90;;;;;;5091555;28;20047;-71
2022/11/04 10:52:14;;;;;;;1.98;1.00;;;10.60;99.90;;;;;;5092367;28;20036;-71
2022/11/04 10:54:43;;;;;;;2.05;0.55;;;10.50;99.90;;;;;;5090490;28;20166;-71
2022/11/04 10:57:11;;;;;;;3.38;2.70;;;10.10;99.90;;;;;;5084940;28;20049;-71
2022/11/04 10:59:53;;;;;;;6.72;1.50;;;10.70;99.90;;;;;;5072668;28;20048;-72
2022/11/04 11:02:39;;;;;;;4.63;2.53;;;;;;;;;;5075895;28;20093;-71
2022/11/04 11:05:17;;;;;;;3.63;1.10;;;11.90;99.90;;;;;;5081909;28;20521;-72
2022/11/04 11:07:44;;;;;;;2.15;0.50;;;12.20;99.90;;;;;;5072502;28;20186;-72
2022/11/04 11:10:22;;;;;;;3.03;1.35;;;11.80;99.90;;;;;;5077060;28;20047;-72
2022/11/04 11:13:06;;;;;;;6.80;2.95;;;11.60;99.90;;;;;;5071016;28;20660;-72
2022/11/04 11:15:38;;;;;;;16.15;9.02;;;12.00;99.90;;;;;;5064632;28;20118;-73
2022/11/04 11:18:07;;;;;;;2.58;1.40;;;11.60;99.90;;;;;;5062946;28;20047;-73
2022/11/04 11:20:36;;;;;;;3.40;1.80;;;11.30;99.90;;;;;;5067275;28;20181;-72
2022/11/04 11:23:08;;;;;;;0.45;0.32;;;10.80;99.90;;;;;;5070073;28;20574;-71
2022/11/04 11:25:41;;;;;;;33.97;18.95;;;10.70;99.90;;;;;;5084354;28;20156;-70
2022/11/04 11:28:09;;;;;;;2.15;0.60;;;10.90;99.90;;;;;;5091929;28;20039;-71
2022/11/04 11:30:47;;;;;;;4.78;1.52;;;10.50;99.90;;;;;;5090063;28;20066;-72
2022/11/04 11:33:29;;;;;;;3.05;1.73;;;10.40;99.90;;;;;;5091928;28;20039;-71
2022/11/04 11:36:21;;;;;;;3.08;1.88;;;10.50;99.90;;;;;;5087897;28;20069;-72
2022/11/04 11:39:15;;;;;;;1.50;0.45;;;10.40;99.90;;;;;;5071313;28;20091;-71
2022/11/04 11:41:58;;;;;;;10.25;7.45;;;10.20;99.90;;;;;;5078530;28;20137;-71
2022/11/04 11:44:43;;;;;;;9.23;6.68;;;10.20;99.90;;;;;;5089443;28;20036;-71
2022/11/04 11:47:35;;;;;;;1.77;0.80;;;10.20;99.90;;;;;;5069184;28;20040;-71
2022/11/04 11:50:05;;;;;;;22.35;15.68;;;9.80;99.90;;;;;;5071074;28;20036;-72
2022/11/04 11:52:38;;;;;;;1.98;1.17;;;9.80;99.90;;;;;;5072532;28;20557;-71
2022/11/04 11:55:35;;;;;;;4.22;2.58;;;9.70;99.90;;;;;;5083171;28;20107;-71
2022/11/04 11:58:26;;;;;;;9.50;5.00;;;9.90;99.90;;;;;;5064955;28;20048;-71
2022/11/04 12:01:09;;;;;;;11.43;7.90;;;10.20;99.90;;;;;;5086330;28;20067;-70
2022/11/04 12:03:43;;;;;;;9.88;6.35;;;10.70;99.90;;;;;;5080627;28;20051;-70
2022/11/04 12:06:23;;;;;;;13.25;7.40;;;10.50;99.90;;;;;;5075797;28;20492;-70
2022/11/04 12:09:18;;;;;;;3.28;1.50;;;10.70;99.90;;;;;;5085354;28;20037;-70
2022/11/04 12:11:44;;;;;;;3.58;1.70;;;10.90;99.90;;;;;;5067849;28;20411;-70
2022/11/04 12:14:29;;;;;;;3.83;1.98;;;11.50;99.90;;;;;;5077408;28;20028;-71
2022/11/04 12:17:08;;;;;;;8.90;4.90;;;11.40;99.90;;;;;;5089695;28;20097;-70
2022/11/04 12:19:46;;;;;;;2.83;1.45;;;11.70;99.90;;;;;;5085560;28;20076;-71
2022/11/04 12:22:26;;;;;;;4.65;2.97;;;11.40;99.90;;;;;;5077119;28;20043;-70
2022/11/04 12:25:46;;;;;;;10.37;7.07;;;11.10;99.90;;;;;;5077699;28;20399;-71
2022/11/04 12:28:37;;;;;;;2.88;0.60;;;10.70;99.90;;;;;;5055371;28;20283;-70
2022/11/04 12:31:23;;;;;;;1.77;0.35;;;10.20;99.90;;;;;;5038182;28;20459;-71
2022/11/04 12:33:58;;;;;;;8.52;3.95;;;10.30;99.90;;;;;;5065147;28;20438;-70
2022/11/04 12:36:30;;;;;;;5.05;2.92;;;10.30;99.90;;;;;;5076139;28;20415;-71
2022/11/04 12:39:07;;;;;;;4.07;2.10;;;10.10;99.90;;;;;;5075749;28;20067;-70
2022/11/04 12:41:39;;;;;;;6.97;3.78;;;10.00;99.90;;;;;;5077212;28;20079;-70
2022/11/04 12:44:34;;;;;;;2.70;0.95;;;9.90;99.90;;;;;;5075956;28;20086;-70
2022/11/04 12:47:42;;;;;;;1.35;0.68;;;9.80;99.90;;;;;;5062031;28;20082;-71
2022/11/04 12:50:39;;;;;;;2.67;0.47;;;10.10;99.90;;;;;;5037959;28;20049;-70
2022/11/04 12:53:14;;;;;;;5.10;3.08;;;10.30;99.90;;;;;;5077022;28;20040;-70
2022/11/04 12:56:01;;;;;;;6.93;3.80;;;10.70;99.90;;;;;;5077087;28;20064;-71
2022/11/04 12:58:38;;;;;;;9.85;4.85;;;10.70;99.90;;;;;;5077082;28;20098;-71
2022/11/04 13:01:17;;;;;;;3.17;1.13;;;10.70;99.90;;;;;;5076716;28;20144;-71
2022/11/04 13:03:53;;;;;;;0.60;0.22;;;11.00;99.90;;;;;;5076882;28;20387;-71
2022/11/04 13:06:32;;;;;;;14.95;8.40;;;10.70;99.90;;;;;;5076916;28;20098;-71
2022/11/04 13:09:04;;;;;;;10.38;6.25;;;11.20;99.90;;;;;;5076861;28;20491;-71
2022/11/04 13:11:44;;;;;;;5.18;2.15;;;11.30;99.90;;;;;;5076680;28;20239;-71
2022/11/04 13:14:28;;;;;;;7.80;4.75;;;11.10;99.90;;;;;;5075413;28;20508;-71
2022/11/04 13:16:59;;;;;;;4.05;2.70;;;11.30;99.90;;;;;;5076626;28;20070;-71
2022/11/04 13:19:36;;;;;;;;;;;11.60;99.90;;;;;;5075652;28;20102;-71
2022/11/04 13:22:07;;;;;;;3.78;0.70;;;11.70;99.90;;;;;;5076583;28;19908;-71
2022/11/04 13:24:37;;;;;;;3.10;1.30;;;11.40;99.90;;;;;;5075612;28;20041;-71
2022/11/04 13:27:26;;;;;;;10.40;4.93;;;11.40;99.90;;;;;;5076564;28;20041;-71
2022/11/04 13:30:21;;;;;;;4.88;3.03;;;11.60;99.90;;;;;;5076414;28;20540;-71
2022/11/04 13:32:58;;;;;;;5.85;3.80;;;11.20;99.90;;;;;;5075066;28;20487;-71
2022/11/04 13:35:43;;;;;;;20.85;12.82;;;10.90;99.90;;;;;;5076171;28;20044;-71
2022/11/04 13:38:14;;;;;;;1.63;0.70;;;11.00;99.90;;;;;;5075996;28;20041;-71
2022/11/04 13:41:04;;;;;;;1.13;0.80;;;11.30;99.90;;;;;;5074507;28;20055;-71
2022/11/04 13:43:38;;;;;;;2.47;0.90;;;11.60;99.90;;;;;;5075043;28;20036;-71
2022/11/04 13:46:09;;;;;;;1.95;0.60;;;11.80;99.90;;;;;;5075967;28;20115;-71
2022/11/04 13:48:38;;;;;;;3.92;1.63;;;11.40;99.90;;;;;;5075986;28;20040;-71
2022/11/04 13:51:12;;;;;;;3.53;1.00;;;11.40;99.90;;;;;;5075878;28;20519;-71
2022/11/04 13:53:47;;;;;;;4.22;0.47;;;11.20;99.90;;;;;;5076083;28;20040;-71
2022/11/04 13:56:34;;;;;;;1.27;0.20;;;11.10;99.90;;;;;;5075891;28;20040;-71